sensor_id;sensor_type;location;lat;lon;timestamp;temperature;humidity
4293;DHT22;2160;51.172;6.808;2023-04-24T04:01:45;12.80;99.90
4293;DHT22;2160;51.172;6.808;2023-04-24T04:04:17;12.70;99.90
4293;DHT22;2160;51.172;6.808;2023-04-24T04:06:45;12.90;99.90
4293;DHT22;2160;51.172;6.808;2023-04-24T04:09:14;12.80;99.90
4293;DHT22;2160;51.172;6.808;2023-04-24T04:11:41;12.80;99.90
4293;DHT22;2160;51.172;6.808;2023-04-24T04:14:08;12.70;99.90
4293;DHT22;2160;51.172;6.808;2023-04-24T04:16:38;12.70;99.90
4293;DHT22;2160;51.172;6.808;2023-04-24T04:19:07;12.70;99.90
4293;DHT22;2160;51.172;6.808;2023-04-24T04:21:35;12.80;99.90
4293;DHT22;2160;51.172;6.808;2023-04-24T04:24:24;12.60;99.90
4293;DHT22;2160;51.172;6.808;2023-04-24T04:26:52;12.60;99.90
4293;DHT22;2160;51.172;6.808;2023-04-24T04:29:27;12.60;99.90
4293;DHT22;2160;51.172;6.808;2023-04-24T04:31:55;12.70;99.90
4293;DHT22;2160;51.172;6.808;2023-04-24T04:34:26;12.70;99.90
4293;DHT22;2160;51.172;6.808;2023-04-24T04:36:55;12.80;99.90
4293;DHT22;2160;51.172;6.808;2023-04-24T04:39:43;13.00;99.90
4293;DHT22;2160;51.172;6.808;2023-04-24T04:42:23;12.80;99.90
4293;DHT22;2160;51.172;6.808;2023-04-24T04:44:50;12.90;99.90
4293;DHT22;2160;51.172;6.808;2023-04-24T04:47:23;12.80;99.90
4293;DHT22;2160;51.172;6.808;2023-04-24T04:49:53;12.80;99.90
4293;DHT22;2160;51.172;6.808;2023-04-24T04:52:24;12.70;99.90
4293;DHT22;2160;51.172;6.808;2023-04-24T04:55:00;12.60;99.90
4293;DHT22;2160;51.172;6.808;2023-04-24T04:57:47;12.50;99.90
4293;DHT22;2160;51.172;6.808;2023-04-24T05:00:15;12.70;99.90
4293;DHT22;2160;51.172;6.808;2023-04-24T05:02:48;12.80;99.90
4293;DHT22;2160;51.172;6.808;2023-04-24T05:05:17;12.70;99.90
4293;DHT22;2160;51.172;6.808;2023-04-24T05:07:45;12.50;99.90
4293;DHT22;2160;51.172;6.808;2023-04-24T05:10:12;12.50;99.90
4293;DHT22;2160;51.172;6.808;2023-04-24T05:12:39;12.40;99.90
4293;DHT22;2160;51.172;6.808;2023-04-24T05:15:07;12.50;99.90
4293;DHT22;2160;51.172;6.808;2023-04-24T05:17:34;12.60;99.90
4293;DHT22;2160;51.172;6.808;2023-04-24T05:20:02;12.50;99.90
4293;DHT22;2160;51.172;6.808;2023-04-24T05:22:33;12.50;99.90
4293;DHT22;2160;51.172;6.808;2023-04-24T05:25:00;12.40;99.90
4293;DHT22;2160;51.172;6.808;2023-04-24T05:27:36;12.40;99.90
4293;DHT22;2160;51.172;6.808;2023-04-24T05:30:09;12.50;99.90
4293;DHT22;2160;51.172;6.808;2023-04-24T05:32:36;12.40;99.90
4293;DHT22;2160;51.172;6.808;2023-04-24T05:35:04;12.40;99.90
4293;DHT22;2160;51.172;6.808;2023-04-24T05:37:32;12.40;99.90
4293;DHT22;2160;51.172;6.808;2023-04-24T05:40:00;12.40;99.90
4293;DHT22;2160;51.172;6.808;2023-04-24T05:42:27;12.40;99.90
4293;DHT22;2160;51.172;6.808;2023-04-24T05:44:56;12.50;99.90
4293;DHT22;2160;51.172;6.808;2023-04-24T05:47:23;12.50;99.90
4293;DHT22;2160;51.172;6.808;2023-04-24T05:49:52;12.50;99.90
4293;DHT22;2160;51.172;6.808;2023-04-24T05:52:19;12.40;99.90
4293;DHT22;2160;51.172;6.808;2023-04-24T05:54:49;12.40;99.90
4293;DHT22;2160;51.172;6.808;2023-04-24T05:57:21;12.10;99.90
4293;DHT22;2160;51.172;6.808;2023-04-24T05:59:53;12.10;99.90
4293;DHT22;2160;51.172;6.808;2023-04-24T06:02:21;12.00;99.90
4293;DHT22;2160;51.172;6.808;2023-04-24T06:04:48;12.00;99.90
4293;DHT22;2160;51.172;6.808;2023-04-24T06:07:17;12.10;99.90
4293;DHT22;2160;51.172;6.808;2023-04-24T06:09:44;12.00;99.90
4293;DHT22;2160;51.172;6.808;2023-04-24T06:12:13;12.00;99.90
4293;DHT22;2160;51.172;6.808;2023-04-24T06:14:55;12.10;99.90
4293;DHT22;2160;51.172;6.808;2023-04-24T06:17:28;12.10;99.90
4293;DHT22;2160;51.172;6.808;2023-04-24T06:19:55;12.10;99.90
4293;DHT22;2160;51.172;6.808;2023-04-24T06:22:24;12.30;99.90
4293;DHT22;2160;51.172;6.808;2023-04-24T06:24:51;12.10;99.90
4293;DHT22;2160;51.172;6.808;2023-04-24T06:27:19;12.00;99.90
4293;DHT22;2160;51.172;6.808;2023-04-24T06:29:49;11.90;99.90
4293;DHT22;2160;51.172;6.808;2023-04-24T06:32:20;12.10;99.90
4293;DHT22;2160;51.172;6.808;2023-04-24T06:34:47;12.00;99.90
4293;DHT22;2160;51.172;6.808;2023-04-24T06:37:15;11.70;99.90
4293;DHT22;2160;51.172;6.808;2023-04-24T06:39:42;11.70;99.90
4293;DHT22;2160;51.172;6.808;2023-04-24T06:42:09;11.90;99.90
4293;DHT22;2160;51.172;6.808;2023-04-24T06:44:38;12.00;99.90
4293;DHT22;2160;51.172;6.808;2023-04-24T06:47:07;11.90;99.90
4293;DHT22;2160;51.172;6.808;2023-04-24T06:49:35;12.00;99.90
4293;DHT22;2160;51.172;6.808;2023-04-24T06:52:02;11.90;99.90
4293;DHT22;2160;51.172;6.808;2023-04-24T06:54:29;11.80;99.90
4293;DHT22;2160;51.172;6.808;2023-04-24T06:56:56;11.70;99.90
4293;DHT22;2160;51.172;6.808;2023-04-24T06:59:23;11.90;99.90
4293;DHT22;2160;51.172;6.808;2023-04-24T07:01:52;12.10;99.90
4293;DHT22;2160;51.172;6.808;2023-04-24T07:04:19;11.70;99.90
4293;DHT22;2160;51.172;6.808;2023-04-24T07:06:46;11.50;99.90
4293;DHT22;2160;51.172;6.808;2023-04-24T07:09:14;11.60;99.90
4293;DHT22;2160;51.172;6.808;2023-04-24T07:11:44;11.50;99.90
4293;DHT22;2160;51.172;6.808;2023-04-24T07:14:11;11.50;99.90
4293;DHT22;2160;51.172;6.808;2023-04-24T07:16:38;11.60;99.90
4293;DHT22;2160;51.172;6.808;2023-04-24T07:19:06;11.60;99.90
4293;DHT22;2160;51.172;6.808;2023-04-24T07:21:33;11.70;99.90
4293;DHT22;2160;51.172;6.808;2023-04-24T07:24:01;11.60;99.90
4293;DHT22;2160;51.172;6.808;2023-04-24T07:26:29;11.40;99.90
4293;DHT22;2160;51.172;6.808;2023-04-24T07:28:56;11.30;99.90
4293;DHT22;2160;51.172;6.808;2023-04-24T07:31:24;11.10;99.90
4293;DHT22;2160;51.172;6.808;2023-04-24T07:33:51;11.10;99.90
4293;DHT22;2160;51.172;6.808;2023-04-24T07:36:19;11.10;99.90
4293;DHT22;2160;51.172;6.808;2023-04-24T07:38:47;11.20;99.90
4293;DHT22;2160;51.172;6.808;2023-04-24T07:41:14;11.00;99.90
4293;DHT22;2160;51.172;6.808;2023-04-24T07:43:41;10.50;99.90
4293;DHT22;2160;51.172;6.808;2023-04-24T07:46:09;10.30;99.90
4293;DHT22;2160;51.172;6.808;2023-04-24T07:48:36;10.30;99.90
4293;DHT22;2160;51.172;6.808;2023-04-24T07:51:03;10.40;99.90
4293;DHT22;2160;51.172;6.808;2023-04-24T07:53:31;10.20;99.90
4293;DHT22;2160;51.172;6.808;2023-04-24T07:55:58;10.30;99.90
4293;DHT22;2160;51.172;6.808;2023-04-24T07:58:25;10.10;99.90
4293;DHT22;2160;51.172;6.808;2023-04-24T08:00:52;10.10;99.90
4293;DHT22;2160;51.172;6.808;2023-04-24T08:03:19;10.00;99.90
4293;DHT22;2160;51.172;6.808;2023-04-24T08:05:47;9.80;99.90
4293;DHT22;2160;51.172;6.808;2023-04-24T08:08:14;9.90;99.90
4293;DHT22;2160;51.172;6.808;2023-04-24T08:10:42;10.10;99.90
4293;DHT22;2160;51.172;6.808;2023-04-24T08:13:09;10.00;99.90
4293;DHT22;2160;51.172;6.808;2023-04-24T08:15:37;9.80;99.90
4293;DHT22;2160;51.172;6.808;2023-04-24T08:18:04;9.80;99.90
4293;DHT22;2160;51.172;6.808;2023-04-24T08:20:31;10.00;99.90
4293;DHT22;2160;51.172;6.808;2023-04-24T08:22:58;10.10;99.90
4293;DHT22;2160;51.172;6.808;2023-04-24T08:25:25;10.10;99.90
4293;DHT22;2160;51.172;6.808;2023-04-24T08:27:53;10.20;99.90
4293;DHT22;2160;51.172;6.808;2023-04-24T08:30:20;10.20;99.90
4293;DHT22;2160;51.172;6.808;2023-04-24T08:32:47;10.30;99.90
4293;DHT22;2160;51.172;6.808;2023-04-24T08:35:15;10.30;99.90
4293;DHT22;2160;51.172;6.808;2023-04-24T08:37:42;10.40;99.90
4293;DHT22;2160;51.172;6.808;2023-04-24T08:40:13;10.40;99.90
4293;DHT22;2160;51.172;6.808;2023-04-24T08:42:41;10.50;99.90
4293;DHT22;2160;51.172;6.808;2023-04-24T08:45:11;10.50;99.90
4293;DHT22;2160;51.172;6.808;2023-04-24T08:47:40;10.40;99.90
4293;DHT22;2160;51.172;6.808;2023-04-24T08:50:08;10.30;99.90
4293;DHT22;2160;51.172;6.808;2023-04-24T08:52:35;10.20;99.90
4293;DHT22;2160;51.172;6.808;2023-04-24T08:55:05;10.20;99.90
4293;DHT22;2160;51.172;6.808;2023-04-24T08:57:32;10.20;99.90
4293;DHT22;2160;51.172;6.808;2023-04-24T09:00:02;10.10;99.90
4293;DHT22;2160;51.172;6.808;2023-04-24T09:02:31;10.00;99.90
4293;DHT22;2160;51.172;6.808;2023-04-24T09:05:00;10.00;99.90
4293;DHT22;2160;51.172;6.808;2023-04-24T09:07:30;10.00;99.90
4293;DHT22;2160;51.172;6.808;2023-04-24T09:09:59;10.10;99.90
4293;DHT22;2160;51.172;6.808;2023-04-24T09:12:27;10.10;99.90
4293;DHT22;2160;51.172;6.808;2023-04-24T09:14:55;10.10;99.90
4293;DHT22;2160;51.172;6.808;2023-04-24T09:17:24;10.20;99.90
4293;DHT22;2160;51.172;6.808;2023-04-24T09:19:54;10.40;99.90
4293;DHT22;2160;51.172;6.808;2023-04-24T09:22:21;10.50;99.90
4293;DHT22;2160;51.172;6.808;2023-04-24T09:24:48;10.70;99.90
4293;DHT22;2160;51.172;6.808;2023-04-24T09:27:28;10.70;99.90
4293;DHT22;2160;51.172;6.808;2023-04-24T09:29:56;10.70;99.90
4293;DHT22;2160;51.172;6.808;2023-04-24T09:32:24;10.70;99.90
4293;DHT22;2160;51.172;6.808;2023-04-24T09:35:07;10.20;99.90
4293;DHT22;2160;51.172;6.808;2023-04-24T09:37:39;10.00;99.90
4293;DHT22;2160;51.172;6.808;2023-04-24T09:40:15;9.90;99.90
4293;DHT22;2160;51.172;6.808;2023-04-24T09:42:51;10.00;99.90
4293;DHT22;2160;51.172;6.808;2023-04-24T09:45:18;10.00;99.90
4293;DHT22;2160;51.172;6.808;2023-04-24T09:47:45;10.10;99.90
4293;DHT22;2160;51.172;6.808;2023-04-24T09:50:16;10.10;99.90
4293;DHT22;2160;51.172;6.808;2023-04-24T09:52:44;10.20;99.90
4293;DHT22;2160;51.172;6.808;2023-04-24T09:55:18;10.30;99.90
4293;DHT22;2160;51.172;6.808;2023-04-24T09:57:50;10.50;99.90
4293;DHT22;2160;51.172;6.808;2023-04-24T10:00:21;10.70;99.90
4293;DHT22;2160;51.172;6.808;2023-04-24T10:02:54;11.00;99.90
4293;DHT22;2160;51.172;6.808;2023-04-24T10:05:27;11.20;99.90
4293;DHT22;2160;51.172;6.808;2023-04-24T10:08:01;11.20;99.90
4293;DHT22;2160;51.172;6.808;2023-04-24T10:10:28;11.30;99.90
4293;DHT22;2160;51.172;6.808;2023-04-24T10:12:55;11.30;99.90
4293;DHT22;2160;51.172;6.808;2023-04-24T10:15:23;11.20;99.90
4293;DHT22;2160;51.172;6.808;2023-04-24T10:17:51;11.30;99.90
4293;DHT22;2160;51.172;6.808;2023-04-24T10:20:23;11.40;99.90
4293;DHT22;2160;51.172;6.808;2023-04-24T10:22:54;11.30;99.90
4293;DHT22;2160;51.172;6.808;2023-04-24T10:25:22;11.10;99.90
4293;DHT22;2160;51.172;6.808;2023-04-24T10:27:51;11.20;99.90
4293;DHT22;2160;51.172;6.808;2023-04-24T10:30:19;11.20;99.90
4293;DHT22;2160;51.172;6.808;2023-04-24T10:32:46;11.20;99.90
4293;DHT22;2160;51.172;6.808;2023-04-24T10:35:15;11.40;99.90
4293;DHT22;2160;51.172;6.808;2023-04-24T10:37:44;11.40;99.90
4293;DHT22;2160;51.172;6.808;2023-04-24T10:40:17;11.50;99.90
4293;DHT22;2160;51.172;6.808;2023-04-24T10:42:47;11.40;99.90
4293;DHT22;2160;51.172;6.808;2023-04-24T10:45:18;11.20;99.90
4293;DHT22;2160;51.172;6.808;2023-04-24T10:47:56;11.20;99.90
4293;DHT22;2160;51.172;6.808;2023-04-24T10:50:25;11.00;99.90
4293;DHT22;2160;51.172;6.808;2023-04-24T10:52:52;11.00;99.90
4293;DHT22;2160;51.172;6.808;2023-04-24T10:55:42;11.10;99.90
4293;DHT22;2160;51.172;6.808;2023-04-24T10:58:10;11.40;99.90
4293;DHT22;2160;51.172;6.808;2023-04-24T11:00:38;11.50;99.90
4293;DHT22;2160;51.172;6.808;2023-04-24T11:03:06;11.60;99.90
4293;DHT22;2160;51.172;6.808;2023-04-24T11:05:57;11.70;99.90
4293;DHT22;2160;51.172;6.808;2023-04-24T11:08:30;11.50;99.90
4293;DHT22;2160;51.172;6.808;2023-04-24T11:11:02;11.60;99.90
4293;DHT22;2160;51.172;6.808;2023-04-24T11:14:01;11.60;99.90
4293;DHT22;2160;51.172;6.808;2023-04-24T11:16:29;11.60;99.90
4293;DHT22;2160;51.172;6.808;2023-04-24T11:19:02;11.70;99.90
4293;DHT22;2160;51.172;6.808;2023-04-24T11:21:40;11.70;99.90
4293;DHT22;2160;51.172;6.808;2023-04-24T11:27:06;11.60;99.90
4293;DHT22;2160;51.172;6.808;2023-04-24T11:29:41;11.60;99.90
4293;DHT22;2160;51.172;6.808;2023-04-24T11:32:19;11.80;99.90
4293;DHT22;2160;51.172;6.808;2023-04-24T11:34:51;11.60;99.90
4293;DHT22;2160;51.172;6.808;2023-04-24T11:37:18;11.60;99.90
4293;DHT22;2160;51.172;6.808;2023-04-24T11:39:45;11.90;99.90
4293;DHT22;2160;51.172;6.808;2023-04-24T11:42:15;12.00;99.90
4293;DHT22;2160;51.172;6.808;2023-04-24T11:44:43;11.90;99.90
4293;DHT22;2160;51.172;6.808;2023-04-24T11:47:10;11.90;99.90
4293;DHT22;2160;51.172;6.808;2023-04-24T11:49:37;12.00;99.90
4293;DHT22;2160;51.172;6.808;2023-04-24T11:52:05;12.20;99.90
4293;DHT22;2160;51.172;6.808;2023-04-24T11:54:32;12.50;99.90
4293;DHT22;2160;51.172;6.808;2023-04-24T11:57:04;12.40;99.90
4293;DHT22;2160;51.172;6.808;2023-04-24T11:59:37;12.40;99.90
4293;DHT22;2160;51.172;6.808;2023-04-24T12:02:04;12.60;99.90
4293;DHT22;2160;51.172;6.808;2023-04-24T12:04:39;12.70;99.90
4293;DHT22;2160;51.172;6.808;2023-04-24T12:07:06;12.80;99.90
4293;DHT22;2160;51.172;6.808;2023-04-24T12:09:41;12.70;99.90
4293;DHT22;2160;51.172;6.808;2023-04-24T12:12:09;12.80;99.90
4293;DHT22;2160;51.172;6.808;2023-04-24T12:14:53;12.90;99.90
4293;DHT22;2160;51.172;6.808;2023-04-24T12:17:24;12.80;99.90
4293;DHT22;2160;51.172;6.808;2023-04-24T12:19:52;12.50;99.90
4293;DHT22;2160;51.172;6.808;2023-04-24T12:22:24;12.40;99.90
4293;DHT22;2160;51.172;6.808;2023-04-24T12:24:59;12.60;99.90
4293;DHT22;2160;51.172;6.808;2023-04-24T12:27:28;12.60;99.90
4293;DHT22;2160;51.172;6.808;2023-04-24T12:29:57;12.90;99.90
4293;DHT22;2160;51.172;6.808;2023-04-24T12:32:25;12.60;99.90
4293;DHT22;2160;51.172;6.808;2023-04-24T12:34:53;12.50;99.90
4293;DHT22;2160;51.172;6.808;2023-04-24T12:37:20;12.40;99.90
4293;DHT22;2160;51.172;6.808;2023-04-24T12:40:01;12.40;99.90
4293;DHT22;2160;51.172;6.808;2023-04-24T12:42:30;12.40;99.90
4293;DHT22;2160;51.172;6.808;2023-04-24T12:44:59;12.50;99.90
4293;DHT22;2160;51.172;6.808;2023-04-24T12:47:27;12.70;99.90
4293;DHT22;2160;51.172;6.808;2023-04-24T12:49:54;12.70;99.90
4293;DHT22;2160;51.172;6.808;2023-04-24T12:52:22;12.70;99.90
4293;DHT22;2160;51.172;6.808;2023-04-24T12:54:49;12.90;99.90
4293;DHT22;2160;51.172;6.808;2023-04-24T12:57:17;13.00;99.90
4293;DHT22;2160;51.172;6.808;2023-04-24T12:59:44;13.00;99.90
4293;DHT22;2160;51.172;6.808;2023-04-24T13:02:13;12.90;99.90
4293;DHT22;2160;51.172;6.808;2023-04-24T13:04:44;12.80;99.90
4293;DHT22;2160;51.172;6.808;2023-04-24T13:07:11;12.90;99.90
4293;DHT22;2160;51.172;6.808;2023-04-24T13:09:40;13.00;99.90
4293;DHT22;2160;51.172;6.808;2023-04-24T13:12:07;13.10;99.90
4293;DHT22;2160;51.172;6.808;2023-04-24T13:14:34;13.20;99.90
4293;DHT22;2160;51.172;6.808;2023-04-24T13:17:01;13.20;99.90
4293;DHT22;2160;51.172;6.808;2023-04-24T16:25:10;13.70;99.90
4293;DHT22;2160;51.172;6.808;2023-04-24T16:46:45;13.50;99.90
4293;DHT22;2160;51.172;6.808;2023-04-24T16:57:49;13.40;99.90
4293;DHT22;2160;51.172;6.808;2023-04-24T17:00:17;13.70;99.90
4293;DHT22;2160;51.172;6.808;2023-04-24T17:02:45;13.80;99.90
4293;DHT22;2160;51.172;6.808;2023-04-24T17:05:14;13.90;99.90
4293;DHT22;2160;51.172;6.808;2023-04-24T17:07:42;14.20;99.90
4293;DHT22;2160;51.172;6.808;2023-04-24T17:21:25;13.90;99.90
4293;DHT22;2160;51.172;6.808;2023-04-24T17:24:29;13.70;99.90
4293;DHT22;2160;51.172;6.808;2023-04-24T18:22:30;11.70;99.90
4293;DHT22;2160;51.172;6.808;2023-04-24T18:41:20;13.10;99.90
4293;DHT22;2160;51.172;6.808;2023-04-24T18:45:13;13.40;99.90
4293;DHT22;2160;51.172;6.808;2023-04-24T18:48:58;13.30;99.90
4293;DHT22;2160;51.172;6.808;2023-04-24T18:53:28;13.20;99.90
4293;DHT22;2160;51.172;6.808;2023-04-24T18:59:37;13.00;99.90
4293;DHT22;2160;51.172;6.808;2023-04-24T19:09:34;12.60;99.90
4293;DHT22;2160;51.172;6.808;2023-04-24T19:12:16;12.80;99.90
4293;DHT22;2160;51.172;6.808;2023-04-24T19:15:02;12.90;99.90
4293;DHT22;2160;51.172;6.808;2023-04-24T19:17:54;12.90;99.90
4293;DHT22;2160;51.172;6.808;2023-04-24T19:20:28;13.00;99.90
4293;DHT22;2160;51.172;6.808;2023-04-24T19:22:57;12.90;99.90
4293;DHT22;2160;51.172;6.808;2023-04-24T19:25:25;12.90;99.90
4293;DHT22;2160;51.172;6.808;2023-04-24T19:27:52;13.00;99.90
4293;DHT22;2160;51.172;6.808;2023-04-24T19:30:20;13.00;99.90
4293;DHT22;2160;51.172;6.808;2023-04-24T19:32:47;12.90;99.90
4293;DHT22;2160;51.172;6.808;2023-04-24T19:35:15;12.90;99.90
4293;DHT22;2160;51.172;6.808;2023-04-24T19:37:42;13.10;99.90
4293;DHT22;2160;51.172;6.808;2023-04-24T19:40:09;13.10;99.90
4293;DHT22;2160;51.172;6.808;2023-04-24T19:42:37;13.10;99.90
4293;DHT22;2160;51.172;6.808;2023-04-24T19:45:06;13.10;99.90
4293;DHT22;2160;51.172;6.808;2023-04-24T19:47:34;13.20;99.90
4293;DHT22;2160;51.172;6.808;2023-04-24T19:50:01;13.20;99.90
4293;DHT22;2160;51.172;6.808;2023-04-24T19:52:28;13.10;99.90
4293;DHT22;2160;51.172;6.808;2023-04-24T19:54:55;13.10;99.90
4293;DHT22;2160;51.172;6.808;2023-04-24T19:57:22;13.10;99.90
4293;DHT22;2160;51.172;6.808;2023-04-24T19:59:49;13.10;99.90
4293;DHT22;2160;51.172;6.808;2023-04-24T20:02:16;13.10;99.90
4293;DHT22;2160;51.172;6.808;2023-04-24T20:04:44;13.10;99.90
4293;DHT22;2160;51.172;6.808;2023-04-24T20:07:11;13.10;99.90
4293;DHT22;2160;51.172;6.808;2023-04-24T20:09:38;12.80;99.90
4293;DHT22;2160;51.172;6.808;2023-04-24T20:12:05;12.70;99.90
4293;DHT22;2160;51.172;6.808;2023-04-24T20:14:32;12.40;99.90
4293;DHT22;2160;51.172;6.808;2023-04-24T20:16:59;12.30;99.90
4293;DHT22;2160;51.172;6.808;2023-04-24T20:19:26;12.10;99.90
4293;DHT22;2160;51.172;6.808;2023-04-24T20:21:55;12.00;99.90
4293;DHT22;2160;51.172;6.808;2023-04-24T20:24:22;12.00;99.90
4293;DHT22;2160;51.172;6.808;2023-04-24T20:26:48;12.10;99.90
4293;DHT22;2160;51.172;6.808;2023-04-24T20:29:16;12.30;99.90
4293;DHT22;2160;51.172;6.808;2023-04-24T20:31:43;12.50;99.90
4293;DHT22;2160;51.172;6.808;2023-04-24T20:34:10;12.50;99.90
4293;DHT22;2160;51.172;6.808;2023-04-24T20:36:36;12.40;99.90
4293;DHT22;2160;51.172;6.808;2023-04-24T20:39:05;12.50;99.90
4293;DHT22;2160;51.172;6.808;2023-04-24T20:41:32;12.50;99.90
4293;DHT22;2160;51.172;6.808;2023-04-24T20:44:00;12.50;99.90
4293;DHT22;2160;51.172;6.808;2023-04-24T20:46:27;12.40;99.90
4293;DHT22;2160;51.172;6.808;2023-04-24T20:48:54;12.30;99.90
4293;DHT22;2160;51.172;6.808;2023-04-24T20:51:21;12.30;99.90
4293;DHT22;2160;51.172;6.808;2023-04-24T20:53:48;12.10;99.90
4293;DHT22;2160;51.172;6.808;2023-04-24T20:56:16;11.90;99.90
4293;DHT22;2160;51.172;6.808;2023-04-24T20:58:44;12.00;99.90
4293;DHT22;2160;51.172;6.808;2023-04-24T21:01:11;12.00;99.90
4293;DHT22;2160;51.172;6.808;2023-04-24T21:03:38;12.00;99.90
4293;DHT22;2160;51.172;6.808;2023-04-24T21:06:05;12.10;99.90
4293;DHT22;2160;51.172;6.808;2023-04-24T21:08:32;12.00;99.90
4293;DHT22;2160;51.172;6.808;2023-04-24T21:11:01;11.90;99.90
4293;DHT22;2160;51.172;6.808;2023-04-24T21:13:29;11.80;99.90
4293;DHT22;2160;51.172;6.808;2023-04-24T21:15:57;11.80;99.90
4293;DHT22;2160;51.172;6.808;2023-04-24T21:18:24;11.60;99.90
4293;DHT22;2160;51.172;6.808;2023-04-24T21:20:51;11.60;99.90
4293;DHT22;2160;51.172;6.808;2023-04-24T21:23:19;11.70;99.90
4293;DHT22;2160;51.172;6.808;2023-04-24T21:25:46;11.80;99.90
4293;DHT22;2160;51.172;6.808;2023-04-24T21:28:13;11.90;99.90
4293;DHT22;2160;51.172;6.808;2023-04-24T21:30:41;11.90;99.90
4293;DHT22;2160;51.172;6.808;2023-04-24T21:33:08;11.70;99.90
4293;DHT22;2160;51.172;6.808;2023-04-24T21:35:35;11.80;99.90
4293;DHT22;2160;51.172;6.808;2023-04-24T21:38:02;11.80;99.90
4293;DHT22;2160;51.172;6.808;2023-04-24T21:40:29;11.60;99.90
4293;DHT22;2160;51.172;6.808;2023-04-24T21:42:56;11.60;99.90
4293;DHT22;2160;51.172;6.808;2023-04-24T21:45:23;11.60;99.90
4293;DHT22;2160;51.172;6.808;2023-04-24T21:47:52;11.40;99.90
4293;DHT22;2160;51.172;6.808;2023-04-24T21:50:19;11.40;99.90
4293;DHT22;2160;51.172;6.808;2023-04-24T21:52:46;11.40;99.90
4293;DHT22;2160;51.172;6.808;2023-04-24T21:55:13;11.20;99.90
4293;DHT22;2160;51.172;6.808;2023-04-24T21:57:40;11.00;99.90
4293;DHT22;2160;51.172;6.808;2023-04-24T22:00:08;10.80;99.90
4293;DHT22;2160;51.172;6.808;2023-04-24T22:02:36;10.70;99.90
4293;DHT22;2160;51.172;6.808;2023-04-24T22:05:04;10.90;99.90
4293;DHT22;2160;51.172;6.808;2023-04-24T22:07:32;10.70;99.90
4293;DHT22;2160;51.172;6.808;2023-04-24T22:09:59;10.60;99.90
4293;DHT22;2160;51.172;6.808;2023-04-24T22:12:26;10.60;99.90
4293;DHT22;2160;51.172;6.808;2023-04-24T22:14:53;10.60;99.90
4293;DHT22;2160;51.172;6.808;2023-04-24T22:17:20;10.70;99.90
4293;DHT22;2160;51.172;6.808;2023-04-24T22:19:48;10.70;99.90
4293;DHT22;2160;51.172;6.808;2023-04-24T22:22:17;10.50;99.90
4293;DHT22;2160;51.172;6.808;2023-04-24T22:24:44;10.30;99.90
4293;DHT22;2160;51.172;6.808;2023-04-24T22:27:11;10.20;99.90
4293;DHT22;2160;51.172;6.808;2023-04-24T22:29:38;10.20;99.90
4293;DHT22;2160;51.172;6.808;2023-04-24T22:32:05;10.20;99.90
4293;DHT22;2160;51.172;6.808;2023-04-24T22:34:32;10.10;99.90
4293;DHT22;2160;51.172;6.808;2023-04-24T22:36:59;10.20;99.90
4293;DHT22;2160;51.172;6.808;2023-04-24T22:39:27;10.10;99.90
4293;DHT22;2160;51.172;6.808;2023-04-24T22:41:54;10.10;99.90
4293;DHT22;2160;51.172;6.808;2023-04-24T22:44:22;10.10;99.90
4293;DHT22;2160;51.172;6.808;2023-04-24T22:46:49;10.20;99.90
4293;DHT22;2160;51.172;6.808;2023-04-24T22:49:16;10.20;99.90
4293;DHT22;2160;51.172;6.808;2023-04-24T22:51:44;10.30;99.90
4293;DHT22;2160;51.172;6.808;2023-04-24T22:54:12;10.30;99.90
4293;DHT22;2160;51.172;6.808;2023-04-24T22:56:40;10.50;99.90
4293;DHT22;2160;51.172;6.808;2023-04-24T22:59:08;10.50;99.90
